Time;durP1;ratioP1;P1;durP2;ratioP2;P2;SDS_P1;SDS_P2;PMS_P1;PMS_P2;Temp;Humidity;BMP_temperature;BMP_pressure;BME280_temperature;BME280_humidity;BME280_pressure;Samples;Min_cycle;Max_cycle;Signal;HPM_P1;HPM_P2
2021/12/18 00:01:32;;;;;;;13.50;10.63;;;;;;;4.20;64.67;101144.84;5067562;28;20227;-62
2021/12/18 00:04:01;;;;;;;12.57;10.77;;;;;;;4.65;62.75;101119.97;5067464;28;20875;-62
2021/12/18 00:06:30;;;;;;;19.13;13.77;;;;;;;5.05;61.42;101112.03;5067118;28;20233;-62
2021/12/18 00:08:58;;;;;;;21.70;14.90;;;;;;;5.16;60.97;101110.47;5067237;28;20273;-62
2021/12/18 00:11:26;;;;;;;15.93;12.10;;;;;;;5.13;61.06;101103.59;5071429;28;20601;-62
2021/12/18 00:13:54;;;;;;;17.67;13.33;;;;;;;5.22;60.89;101107.41;5069019;28;20234;-62
2021/12/18 00:16:21;;;;;;;16.37;11.87;;;;;;;5.42;60.34;101106.06;5070697;28;20237;-63
2021/12/18 00:18:51;;;;;;;16.43;9.90;;;;;;;5.73;59.69;101106.59;5070592;28;20515;-62
2021/12/18 00:21:20;;;;;;;12.00;9.70;;;;;;;5.00;61.58;101110.66;5069696;28;20297;-62
2021/12/18 00:23:48;;;;;;;11.43;9.67;;;;;;;5.73;59.84;101093.34;5071515;28;20683;-62
2021/12/18 00:26:15;;;;;;;13.47;10.67;;;;;;;4.93;62.28;101122.59;5081158;22;20241;-63
2021/12/18 00:28:42;;;;;;;20.60;12.53;;;;;;;4.69;62.38;101112.66;5029989;28;20229;-64
2021/12/18 00:31:10;;;;;;;14.70;10.70;;;;;;;4.97;61.79;101101.13;5030288;28;20679;-63
2021/12/18 00:33:37;;;;;;;13.13;10.43;;;;;;;5.00;61.47;101103.56;5030937;28;20255;-63
2021/12/18 00:36:04;;;;;;;15.10;11.07;;;;;;;3.89;64.45;101120.38;5034471;28;20567;-63
2021/12/18 00:38:31;;;;;;;16.97;11.87;;;;;;;5.07;60.98;101089.00;5055252;28;20234;-63
2021/12/18 00:43:41;;;;;;;15.13;11.83;;;;;;;4.57;62.07;101106.38;5054059;28;20231;-63
2021/12/18 00:46:08;;;;;;;17.63;12.37;;;;;;;5.20;61.18;101098.75;5049442;28;20231;-63
2021/12/18 00:48:36;;;;;;;17.00;12.33;;;;;;;4.73;62.00;101104.41;5036889;28;20221;-63
2021/12/18 00:51:03;;;;;;;16.73;12.17;;;;;;;4.12;63.68;101117.13;5030301;28;20231;-63
2021/12/18 00:53:30;;;;;;;26.07;15.83;;;;;;;4.35;63.84;101123.63;5030183;28;20311;-64
2021/12/18 00:55:58;;;;;;;17.83;13.00;;;;;;;4.70;62.36;101104.63;5031775;28;21842;-65
2021/12/18 00:58:25;;;;;;;24.07;14.57;;;;;;;4.45;61.95;101089.53;5049781;28;20671;-63
2021/12/18 01:00:53;;;;;;;22.63;14.40;;;;;;;4.96;61.27;101099.44;5050064;28;20235;-63
2021/12/18 01:03:21;;;;;;;22.70;16.20;;;;;;;3.90;62.91;101088.59;5050296;28;20224;-63
2021/12/18 01:05:49;;;;;;;14.77;11.03;;;;;;;4.21;64.05;101128.91;5049672;28;20231;-66
2021/12/18 01:08:18;;;;;;;16.13;11.77;;;;;;;2.78;67.52;101137.44;5049413;28;20231;-63
2021/12/18 01:13:36;;;;;;;17.40;12.20;;;;;;;3.98;64.45;101123.28;5047372;28;20260;-63
2021/12/18 01:16:12;;;;;;;18.47;13.00;;;;;;;4.46;62.91;101111.50;5049597;28;20609;-63
2021/12/18 01:24:10;;;;;;;17.53;12.33;;;;;;;3.61;64.92;101130.00;5049805;28;20241;-63
2021/12/18 01:26:36;;;;;;;15.37;12.10;;;;;;;3.78;63.80;101118.41;5047568;28;20341;-63
2021/12/18 01:29:03;;;;;;;17.27;13.00;;;;;;;4.81;61.77;101111.00;5049393;28;20712;-63
2021/12/18 01:31:30;;;;;;;17.07;12.93;;;;;;;4.10;63.87;101139.31;5048545;28;20226;-63
2021/12/18 01:33:58;;;;;;;17.27;12.43;;;;;;;3.56;65.40;101146.09;5049464;28;20238;-63
2021/12/18 01:36:27;;;;;;;17.60;12.90;;;;;;;4.45;62.90;101131.81;5052280;28;20236;-63
2021/12/18 01:38:55;;;;;;;19.07;13.53;;;;;;;3.47;65.50;101145.78;5061173;28;20222;-63
2021/12/18 01:41:22;;;;;;;18.00;13.67;;;;;;;3.96;63.69;101148.06;5055963;28;20223;-63
2021/12/18 01:44:34;;;;;;;17.83;13.40;;;;;;;4.13;63.25;101141.75;5061599;28;20222;-63
2021/12/18 01:46:50;;;;;;;18.13;13.37;;;;;;;4.64;62.32;101136.75;5052259;28;20238;-63
2021/12/18 01:52:17;;;;;;;19.63;14.93;;;;;;;4.48;62.71;101130.75;5028486;28;20257;-63
2021/12/18 01:54:45;;;;;;;17.80;13.37;;;;;;;4.36;62.47;101127.94;5028440;28;20265;-63
2021/12/18 01:57:13;;;;;;;18.23;13.27;;;;;;;4.40;62.10;101119.81;5044032;28;20238;-63
2021/12/18 01:59:44;;;;;;;17.87;13.77;;;;;;;3.76;64.27;101138.78;5045685;28;20614;-63
2021/12/18 02:02:11;;;;;;;17.07;13.10;;;;;;;3.66;64.57;101141.13;5048990;28;20606;-63
2021/12/18 02:04:38;;;;;;;19.13;13.60;;;;;;;4.21;63.39;101122.78;5048341;28;20238;-63
2021/12/18 02:07:07;;;;;;;18.07;13.07;;;;;;;4.38;63.04;101129.66;5047874;28;20242;-63
2021/12/18 02:12:15;;;;;;;22.57;14.10;;;;;;;4.33;62.40;101111.44;5048444;28;20731;-63
2021/12/18 02:22:56;;;;;;;21.83;15.00;;;;;;;4.19;63.33;101114.13;5036300;28;20860;-63
2021/12/18 02:25:24;;;;;;;21.40;14.77;;;;;;;4.54;62.35;101114.50;5048131;28;20231;-63
2021/12/18 02:27:52;;;;;;;22.27;15.57;;;;;;;4.08;63.62;101120.94;5047866;28;20242;-63
2021/12/18 02:30:23;;;;;;;23.20;15.00;;;;;;;3.78;63.26;101090.22;5048147;28;20238;-63
2021/12/18 02:32:52;;;;;;;22.30;15.40;;;;;;;4.32;63.40;101128.25;5027536;28;21744;-63
2021/12/18 02:35:27;;;;;;;19.90;14.23;;;;;;;4.48;62.49;101105.16;5043436;28;20219;-63
2021/12/18 02:38:12;;;;;;;22.40;15.10;;;;;;;3.87;64.07;101116.97;5047034;28;20747;-63
2021/12/18 02:40:50;;;;;;;20.80;15.03;;;;;;;3.96;64.21;101129.59;5047782;28;20235;-63
2021/12/18 02:43:18;;;;;;;19.40;14.40;;;;;;;4.46;62.52;101104.41;5047780;28;20226;-63
2021/12/18 02:45:44;;;;;;;20.77;14.87;;;;;;;3.75;63.37;101094.84;5048203;28;20234;-63
2021/12/18 02:48:11;;;;;;;22.07;15.07;;;;;;;3.37;65.48;101117.34;5047509;28;20230;-63
2021/12/18 02:50:39;;;;;;;21.70;15.77;;;;;;;4.01;64.01;101116.94;5047196;28;20232;-63
2021/12/18 02:53:07;;;;;;;22.70;15.00;;;;;;;4.15;63.35;101116.13;5048283;28;20230;-63
2021/12/18 02:55:34;;;;;;;21.73;15.30;;;;;;;3.13;65.36;101108.19;5047807;28;20226;-63
2021/12/18 02:58:01;;;;;;;20.50;14.17;;;;;;;2.60;67.28;101120.91;5047638;28;20591;-63
2021/12/18 03:00:29;;;;;;;18.77;13.53;;;;;;;4.49;62.75;101101.59;5047286;28;20612;-63
2021/12/18 03:02:57;;;;;;;18.63;13.43;;;;;;;4.19;63.56;101104.41;5047856;28;20572;-63
2021/12/18 03:05:32;;;;;;;19.47;13.97;;;;;;;3.32;64.22;101092.16;5047432;28;20237;-63
2021/12/18 03:08:08;;;;;;;18.83;13.53;;;;;;;4.07;63.86;101118.38;5046255;28;20230;-65
2021/12/18 03:19:27;;;;;;;29.37;17.40;;;;;;;3.62;65.48;101110.56;5030853;28;20321;-63
2021/12/18 03:24:34;;;;;;;30.40;17.50;;;;;;;4.18;63.65;101094.78;5045461;28;20237;-63
2021/12/18 03:27:01;;;;;;;28.40;17.73;;;;;;;3.48;65.26;101107.91;5047277;28;20238;-63
2021/12/18 03:29:28;;;;;;;25.00;17.03;;;;;;;3.23;67.00;101131.28;5047374;28;20241;-63
2021/12/18 03:31:55;;;;;;;31.70;18.57;;;;;;;3.48;65.68;101113.19;5047889;28;20233;-63
2021/12/18 03:34:21;;;;;;;26.13;18.20;;;;;;;3.82;64.92;101101.41;5031152;28;20230;-63
2021/12/18 03:36:50;;;;;;;26.97;17.47;;;;;;;3.27;65.92;101102.97;5045740;28;20284;-63
2021/12/18 03:39:18;;;;;;;29.57;18.17;;;;;;;3.48;66.38;101123.75;5047361;28;20223;-63
2021/12/18 03:41:49;;;;;;;25.70;17.63;;;;;;;3.56;65.93;101117.06;5033278;28;20253;-63
2021/12/18 03:44:16;;;;;;;29.27;18.67;;;;;;;3.33;66.27;101125.50;5047973;28;20237;-63
2021/12/18 03:46:43;;;;;;;25.70;17.67;;;;;;;2.97;67.76;101124.06;5050103;28;20235;-62
2021/12/18 03:49:10;;;;;;;27.30;19.17;;;;;;;3.54;66.68;101134.78;5051180;28;20252;-63
2021/12/18 03:51:37;;;;;;;26.60;17.43;;;;;;;3.77;65.03;101104.34;5051720;28;20240;-63
2021/12/18 03:54:04;;;;;;;30.07;18.43;;;;;;;2.86;68.05;101122.03;5050951;28;20235;-63
2021/12/18 03:56:31;;;;;;;26.93;17.63;;;;;;;3.43;66.26;101116.94;5050472;28;20613;-63
2021/12/18 03:58:59;;;;;;;23.87;17.40;;;;;;;3.73;64.81;101087.00;5050518;28;20243;-63
2021/12/18 04:01:26;;;;;;;26.87;18.10;;;;;;;3.44;65.92;101094.06;5050948;28;20242;-63
2021/12/18 04:03:53;;;;;;;28.03;18.83;;;;;;;2.89;67.78;101105.22;5051671;28;20233;-63
2021/12/18 04:06:21;;;;;;;24.70;16.40;;;;;;;2.90;68.09;101105.13;5050054;28;20234;-63
2021/12/18 04:08:48;;;;;;;22.70;15.87;;;;;;;4.15;64.32;101087.91;5050776;28;20249;-63
2021/12/18 04:11:15;;;;;;;22.27;15.77;;;;;;;4.22;64.21;101083.06;5048526;28;20223;-64
2021/12/18 04:13:45;;;;;;;23.73;16.90;;;;;;;3.69;65.54;101090.78;5049149;28;20231;-63
2021/12/18 04:16:14;;;;;;;23.83;15.53;;;;;;;3.53;66.41;101108.50;5050498;28;20235;-64
2021/12/18 04:18:41;;;;;;;24.77;16.50;;;;;;;3.09;68.39;101123.34;5048568;28;20223;-63
2021/12/18 04:21:08;;;;;;;21.37;15.50;;;;;;;2.83;67.95;101106.41;5050987;28;20223;-63
2021/12/18 04:23:35;;;;;;;24.30;16.77;;;;;;;3.56;66.49;101109.16;5050674;28;20237;-63
2021/12/18 04:26:02;;;;;;;21.97;15.53;;;;;;;4.15;64.63;101095.81;5050792;28;20238;-64
2021/12/18 04:28:29;;;;;;;22.97;16.20;;;;;;;3.30;66.87;101105.41;5048841;28;20237;-64
2021/12/18 04:30:57;;;;;;;24.57;16.87;;;;;;;4.59;64.09;101093.91;5051050;28;20237;-64
2021/12/18 04:33:24;;;;;;;24.40;17.10;;;;;;;2.99;68.68;101130.94;5050619;28;20224;-64
2021/12/18 04:35:51;;;;;;;23.97;16.47;;;;;;;3.82;65.25;101100.59;5049730;28;20227;-64
2021/12/18 04:38:18;;;;;;;25.20;16.87;;;;;;;3.66;66.34;101112.09;5049029;28;20224;-63
2021/12/18 04:40:45;;;;;;;22.80;15.60;;;;;;;4.05;65.82;101113.19;5044068;28;20235;-63
2021/12/18 04:43:12;;;;;;;23.03;16.20;;;;;;;3.72;66.15;101111.69;5042468;28;20228;-63
2021/12/18 04:45:39;;;;;;;23.33;15.73;;;;;;;3.57;65.84;101095.03;5049870;28;20227;-64
2021/12/18 04:48:06;;;;;;;25.10;17.20;;;;;;;3.29;67.28;101111.63;5048727;28;20245;-64
2021/12/18 04:50:33;;;;;;;25.27;15.67;;;;;;;3.85;65.91;101110.94;5042123;28;20602;-64
2021/12/18 04:53:00;;;;;;;21.70;14.27;;;;;;;3.61;67.44;101114.16;5047780;28;20699;-64
2021/12/18 04:55:27;;;;;;;25.97;14.57;;;;;;;4.40;64.36;101101.31;5049608;28;20223;-63
2021/12/18 04:57:55;;;;;;;22.47;15.13;;;;;;;3.30;67.08;101118.59;5049909;28;20235;-63
2021/12/18 05:00:27;;;;;;;24.87;15.73;;;;;;;3.47;66.27;101122.88;5031269;28;20242;-63
2021/12/18 05:02:55;;;;;;;22.83;15.43;;;;;;;2.37;69.65;101116.91;5029863;28;20600;-64
2021/12/18 05:05:22;;;;;;;23.93;15.83;;;;;;;2.91;68.68;101130.53;5028951;28;20231;-63
2021/12/18 05:07:49;;;;;;;25.37;15.27;;;;;;;3.45;67.63;101137.97;5037772;28;20909;-64
2021/12/18 05:10:15;;;;;;;21.73;14.90;;;;;;;2.86;68.28;101119.41;5048580;28;20219;-64
2021/12/18 05:12:42;;;;;;;23.90;15.60;;;;;;;3.43;67.51;101122.22;5047906;28;20236;-63
2021/12/18 05:15:09;;;;;;;25.07;15.77;;;;;;;3.66;66.74;101119.13;5050087;28;20222;-64
2021/12/18 05:17:36;;;;;;;25.27;16.47;;;;;;;3.20;67.97;101128.84;5033005;28;20622;-63
2021/12/18 05:20:04;;;;;;;21.20;14.77;;;;;;;1.76;71.40;101114.03;5032392;28;20239;-64
2021/12/18 05:22:31;;;;;;;23.87;14.90;;;;;;;2.86;69.17;101127.31;5048459;28;20554;-64
2021/12/18 05:24:58;;;;;;;23.47;15.53;;;;;;;1.92;70.43;101104.41;5049898;28;20227;-64
2021/12/18 05:27:25;;;;;;;24.07;15.70;;;;;;;3.44;67.39;101117.81;5046945;28;20340;-63
2021/12/18 05:29:52;;;;;;;23.50;16.17;;;;;;;2.85;68.06;101110.66;5029562;28;20571;-63
2021/12/18 05:32:19;;;;;;;23.93;16.83;;;;;;;3.00;68.58;101130.00;5031498;28;20230;-63
2021/12/18 05:34:45;;;;;;;25.90;16.27;;;;;;;2.62;69.09;101117.22;5048095;28;20234;-63
2021/12/18 05:39:39;;;;;;;24.67;16.30;;;;;;;2.32;69.45;101117.16;5029177;28;20224;-63
2021/12/18 05:42:07;;;;;;;22.63;15.63;;;;;;;3.19;68.31;101127.13;5032773;28;20308;-63
2021/12/18 05:44:34;;;;;;;25.27;15.60;;;;;;;2.82;68.83;101117.88;5049129;28;20231;-63
2021/12/18 05:47:01;;;;;;;22.03;14.37;;;;;;;2.49;69.36;101124.13;5048463;28;20235;-63
2021/12/18 05:49:28;;;;;;;22.90;15.47;;;;;;;2.88;68.41;101128.06;5048969;28;20235;-63
2021/12/18 05:51:55;;;;;;;23.60;15.53;;;;;;;2.98;67.83;101131.91;5048034;28;20276;-63
2021/12/18 05:54:22;;;;;;;26.63;17.03;;;;;;;3.39;66.18;101118.09;5036185;28;20330;-64
2021/12/18 05:56:49;;;;;;;22.23;16.13;;;;;;;3.27;67.34;101133.75;5027692;28;20689;-64
2021/12/18 05:59:16;;;;;;;22.33;14.83;;;;;;;2.40;69.07;101124.66;5028943;28;20708;-63
2021/12/18 06:01:44;;;;;;;26.47;15.53;;;;;;;3.49;67.03;101120.16;5028982;28;20232;-63
2021/12/18 06:04:10;;;;;;;21.60;15.27;;;;;;;3.36;66.75;101112.16;5027867;28;20228;-63
2021/12/18 06:06:37;;;;;;;22.87;15.00;;;;;;;2.66;68.80;101125.81;5026994;28;20240;-63
2021/12/18 06:09:04;;;;;;;22.03;15.53;;;;;;;1.86;69.82;101104.72;5027726;28;20224;-63
2021/12/18 06:11:32;;;;;;;22.20;15.67;;;;;;;3.31;67.65;101137.91;5028784;28;20230;-63
2021/12/18 06:13:59;;;;;;;22.27;14.97;;;;;;;2.04;70.29;101123.94;5026833;28;20235;-64
2021/12/18 06:16:26;;;;;;;21.60;15.17;;;;;;;2.86;68.69;101141.34;5027448;28;20239;-63
2021/12/18 06:18:53;;;;;;;24.27;15.37;;;;;;;3.19;67.23;101126.31;5028403;28;20230;-64
2021/12/18 06:21:22;;;;;;;21.13;15.50;;;;;;;2.25;70.83;101123.72;5039504;28;20244;-64
2021/12/18 06:23:51;;;;;;;21.03;14.23;;;;;;;1.94;70.21;101112.22;5046533;28;20226;-64
2021/12/18 06:26:20;;;;;;;22.53;14.87;;;;;;;2.31;70.23;101118.13;5047897;28;20243;-63
2021/12/18 06:28:47;;;;;;;21.83;15.10;;;;;;;2.95;67.30;101107.47;5066432;23;20272;-69
2021/12/18 06:31:30;;;;;;;21.93;15.77;;;;;;;3.31;66.96;101117.66;5048908;28;20227;-67
2021/12/18 06:33:57;;;;;;;21.33;15.20;;;;;;;2.82;68.30;101134.53;5048790;28;20246;-69
2021/12/18 06:36:25;;;;;;;22.33;14.33;;;;;;;2.36;71.23;101154.69;5048506;28;20699;-67
2021/12/18 06:38:52;;;;;;;21.93;14.93;;;;;;;2.64;69.09;101132.94;5059863;28;20302;-67
2021/12/18 06:41:19;;;;;;;21.30;15.20;;;;;;;2.23;70.07;101139.59;5069075;28;20234;-67
2021/12/18 06:43:46;;;;;;;23.13;15.50;;;;;;;2.49;70.26;101147.81;5051365;28;20226;-69
2021/12/18 06:46:13;;;;;;;23.97;16.60;;;;;;;3.11;67.14;101120.63;5047579;28;20234;-69
2021/12/18 06:48:40;;;;;;;24.17;16.50;;;;;;;3.22;66.15;101097.97;5048399;28;20235;-69
2021/12/18 06:51:06;;;;;;;22.70;15.70;;;;;;;3.67;65.35;101103.19;5048636;28;20240;-69
2021/12/18 06:53:33;;;;;;;22.40;15.43;;;;;;;2.87;67.19;101119.31;5048011;28;20257;-70
2021/12/18 06:56:00;;;;;;;20.73;15.07;;;;;;;2.78;67.86;101124.25;5031959;28;20761;-69
2021/12/18 06:58:27;;;;;;;23.30;15.73;;;;;;;3.72;65.75;101111.69;5027684;28;20242;-68
2021/12/18 07:00:54;;;;;;;21.70;15.33;;;;;;;3.72;64.81;101103.78;5029062;28;20238;-69
2021/12/18 07:03:21;;;;;;;23.50;14.70;;;;;;;3.70;65.71;101116.22;5028687;28;20236;-69
2021/12/18 07:05:48;;;;;;;23.27;15.70;;;;;;;3.34;66.51;101130.69;5028849;28;20753;-67
2021/12/18 07:08:16;;;;;;;22.70;15.53;;;;;;;3.07;67.59;101135.78;5027898;28;20631;-69
2021/12/18 07:10:44;;;;;;;24.80;16.37;;;;;;;3.12;67.05;101130.22;5028518;28;20250;-70
2021/12/18 07:13:11;;;;;;;22.87;16.07;;;;;;;2.15;69.60;101127.78;5027044;28;20236;-69
2021/12/18 07:15:39;;;;;;;22.87;15.30;;;;;;;1.83;70.23;101122.47;5028054;28;20226;-70
2021/12/18 07:18:06;;;;;;;23.33;15.70;;;;;;;3.01;68.10;101125.56;5028645;28;20238;-69
2021/12/18 07:20:33;;;;;;;22.03;15.20;;;;;;;3.82;65.27;101103.22;5034734;28;20730;-70
2021/12/18 07:23:00;;;;;;;20.63;14.20;;;;;;;3.39;67.01;101128.63;5051280;28;20235;-70
2021/12/18 07:25:28;;;;;;;21.53;16.30;;;;;;;3.06;68.35;101150.72;5051993;28;20223;-69
2021/12/18 07:27:56;;;;;;;23.67;15.57;;;;;;;3.83;65.82;101128.66;5051635;28;20235;-69
2021/12/18 07:30:23;;;;;;;23.30;15.40;;;;;;;2.62;68.02;101138.31;5052785;28;20237;-70
2021/12/18 07:32:50;;;;;;;24.93;15.97;;;;;;;3.01;67.29;101134.31;5047744;28;20840;-69
2021/12/18 07:35:17;;;;;;;24.50;15.93;;;;;;;3.09;67.13;101147.06;5041978;28;20227;-70
2021/12/18 07:37:44;;;;;;;24.73;16.03;;;;;;;2.02;71.27;101161.78;5071040;28;20606;-69
2021/12/18 07:40:11;;;;;;;24.53;15.93;;;;;;;1.70;71.08;101156.44;5071359;28;20256;-69
2021/12/18 07:42:39;;;;;;;24.47;15.23;;;;;;;1.77;70.90;101143.81;5072016;28;20226;-70
2021/12/18 07:45:08;;;;;;;22.50;14.97;;;;;;;2.96;67.72;101144.28;5071690;28;20581;-69
2021/12/18 07:47:35;;;;;;;23.33;15.37;;;;;;;2.27;69.38;101146.38;5072026;28;20238;-70
2021/12/18 07:50:07;;;;;;;23.50;14.73;;;;;;;1.43;70.46;101120.13;5071828;28;20713;-69
2021/12/18 07:52:35;;;;;;;23.13;14.80;;;;;;;2.49;69.80;101155.72;5071224;28;20246;-69
2021/12/18 07:55:03;;;;;;;23.53;15.03;;;;;;;2.93;68.13;101148.88;5063821;28;20227;-69
2021/12/18 07:57:35;;;;;;;22.27;15.03;;;;;;;3.38;66.79;101140.09;5051468;28;20340;-69
2021/12/18 08:00:05;;;;;;;23.63;15.97;;;;;;;3.08;67.40;101147.16;5052363;28;20238;-69
2021/12/18 08:02:32;;;;;;;26.73;16.70;;;;;;;2.83;67.34;101136.25;5051055;28;20234;-69
2021/12/18 08:04:59;;;;;;;24.87;16.30;;;;;;;2.49;68.22;101142.56;5051900;28;20604;-69
2021/12/18 08:07:26;;;;;;;22.80;15.33;;;;;;;3.23;66.15;101125.16;5050767;28;20230;-70
2021/12/18 08:09:53;;;;;;;24.70;16.00;;;;;;;2.43;68.30;101127.13;5051796;28;20224;-69
2021/12/18 08:12:20;;;;;;;25.90;15.50;;;;;;;1.86;70.47;101138.09;5051616;28;20227;-69
2021/12/18 08:14:47;;;;;;;26.47;16.30;;;;;;;3.15;67.18;101136.19;5047673;28;20249;-69
2021/12/18 08:17:13;;;;;;;23.83;15.90;;;;;;;2.34;69.50;101138.13;5051109;28;20234;-69
2021/12/18 08:19:45;;;;;;;25.27;14.80;;;;;;;1.30;72.56;101138.28;5050696;28;20603;-70
2021/12/18 08:22:12;;;;;;;21.40;12.57;;;;;;;2.67;68.56;101143.31;5039855;28;20227;-69
2021/12/18 08:24:39;;;;;;;24.80;14.93;;;;;;;1.93;69.67;101140.28;5053238;28;20695;-69
2021/12/18 08:27:06;;;;;;;24.23;15.77;;;;;;;3.16;66.79;101142.28;5044859;28;20227;-69
2021/12/18 08:29:33;;;;;;;26.03;16.77;;;;;;;2.71;66.85;101115.84;5031130;28;20229;-69
2021/12/18 08:32:00;;;;;;;24.77;15.80;;;;;;;2.48;68.34;101130.34;5030516;28;20803;-69
2021/12/18 08:34:27;;;;;;;23.70;15.80;;;;;;;3.14;67.60;101138.91;5047597;28;20233;-70
2021/12/18 08:36:54;;;;;;;22.80;14.73;;;;;;;2.98;67.25;101125.75;5065541;28;20226;-69
2021/12/18 08:39:26;;;;;;;25.67;16.57;;;;;;;3.17;66.00;101121.13;5071502;28;20260;-69
2021/12/18 08:41:54;;;;;;;22.20;15.73;;;;;;;3.73;65.38;101125.75;5069987;28;20231;-69
2021/12/18 08:44:21;;;;;;;23.63;15.13;;;;;;;2.76;68.58;101144.59;5071076;28;20223;-70
2021/12/18 08:46:47;;;;;;;22.63;15.13;;;;;;;4.03;64.38;101119.50;5050246;28;20223;-70
2021/12/18 08:49:15;;;;;;;22.40;14.30;;;;;;;2.75;67.62;101129.69;5050069;28;20235;-70
2021/12/18 08:51:42;;;;;;;24.30;15.20;;;;;;;3.16;66.97;101139.66;5049093;28;20263;-69
2021/12/18 08:54:09;;;;;;;26.43;15.73;;;;;;;2.71;67.07;101115.00;5050734;28;20231;-70
2021/12/18 08:56:36;;;;;;;23.83;14.77;;;;;;;3.75;65.60;101123.88;5048740;28;20802;-70
2021/12/18 08:59:03;;;;;;;23.30;14.77;;;;;;;3.29;66.41;101131.84;5050135;28;20321;-70
2021/12/18 09:01:31;;;;;;;22.53;14.43;;;;;;;3.04;67.08;101128.03;5049656;28;20278;-70
2021/12/18 09:03:58;;;;;;;24.40;15.67;;;;;;;2.75;68.10;101140.25;5051043;28;20231;-70
2021/12/18 09:06:26;;;;;;;21.77;13.97;;;;;;;3.40;66.17;101117.13;5049691;28;20254;-69
2021/12/18 09:08:53;;;;;;;20.70;14.30;;;;;;;3.26;65.45;101117.06;5050189;28;20318;-71
2021/12/18 09:11:21;;;;;;;22.03;14.37;;;;;;;2.41;69.83;101140.38;5050782;28;20275;-71
2021/12/18 09:13:48;;;;;;;21.77;13.60;;;;;;;1.89;70.47;101137.94;5048132;28;20224;-69
2021/12/18 09:16:17;;;;;;;21.67;13.43;;;;;;;2.16;70.91;101164.56;5049553;28;20652;-68
2021/12/18 09:18:44;;;;;;;19.07;12.97;;;;;;;1.65;70.74;101137.41;5049327;28;20240;-70
2021/12/18 09:21:12;;;;;;;16.43;11.37;;;;;;;1.73;72.50;101165.03;5046998;28;20230;-67
2021/12/18 09:23:39;;;;;;;17.50;12.03;;;;;;;1.12;71.69;101119.03;5058117;28;20233;-70
2021/12/18 09:26:06;;;;;;;19.00;11.63;;;;;;;2.27;71.59;101166.59;5050408;28;20705;-67
2021/12/18 09:28:33;;;;;;;19.13;11.90;;;;;;;2.52;70.14;101152.94;5049294;28;20253;-67
2021/12/18 09:30:59;;;;;;;19.13;12.43;;;;;;;1.99;71.24;101152.28;5049617;28;20234;-67
2021/12/18 09:33:26;;;;;;;17.70;11.83;;;;;;;2.21;70.83;101146.72;5049481;28;20223;-68
2021/12/18 09:35:53;;;;;;;18.17;11.90;;;;;;;4.07;65.77;101121.88;5056679;28;20743;-67
2021/12/18 09:38:20;;;;;;;17.53;11.10;;;;;;;2.53;67.80;101107.22;5069905;28;20309;-68
2021/12/18 09:40:48;;;;;;;19.27;12.40;;;;;;;2.17;71.57;101154.88;5069576;28;20606;-69
2021/12/18 09:43:15;;;;;;;18.97;12.83;;;;;;;3.49;66.46;101102.56;5068547;28;20225;-70
2021/12/18 09:45:46;;;;;;;17.60;12.67;;;;;;;3.16;67.67;101118.56;5070005;28;20240;-69
2021/12/18 09:48:13;;;;;;;17.80;12.37;;;;;;;3.49;66.75;101094.63;5069123;28;20271;-68
2021/12/18 09:50:42;;;;;;;20.87;13.03;;;;;;;3.05;67.78;101116.53;5069341;28;20671;-68
2021/12/18 09:53:10;;;;;;;17.60;11.80;;;;;;;3.60;64.73;101076.34;5069755;28;20794;-68
2021/12/18 09:55:37;;;;;;;19.13;12.03;;;;;;;2.13;71.27;101133.97;5056381;28;20239;-68
2021/12/18 09:58:03;;;;;;;17.37;11.47;;;;;;;3.07;67.78;101106.78;5049271;28;20607;-68
2021/12/18 10:00:30;;;;;;;20.43;12.13;;;;;;;2.85;67.41;101088.72;5049057;28;20254;-69
2021/12/18 10:02:58;;;;;;;17.90;12.13;;;;;;;2.46;68.63;101095.31;5050077;28;20224;-69
2021/12/18 10:05:32;;;;;;;19.03;13.00;;;;;;;4.36;64.45;101074.25;5049495;28;20694;-68
2021/12/18 10:08:13;;;;;;;20.30;13.03;;;;;;;4.30;64.20;101061.47;5049022;28;20239;-68
2021/12/18 10:11:02;;;;;;;18.77;12.37;;;;;;;4.01;65.05;101068.59;5049318;28;20241;-68
2021/12/18 10:13:31;;;;;;;19.67;12.70;;;;;;;4.64;63.33;101051.34;5047161;28;20807;-68
2021/12/18 10:16:19;;;;;;;21.40;13.23;;;;;;;4.59;64.06;101059.56;5049685;28;20242;-69
2021/12/18 10:18:46;;;;;;;21.13;13.40;;;;;;;5.05;62.70;101056.50;5048171;28;20238;-68
2021/12/18 10:21:19;;;;;;;20.37;13.17;;;;;;;4.15;64.75;101058.84;5046038;28;20237;-68
2021/12/18 10:23:48;;;;;;;19.07;12.60;;;;;;;3.95;65.22;101056.63;5052608;28;20223;-68
2021/12/18 10:26:51;;;;;;;20.37;12.73;;;;;;;4.29;63.98;101052.66;5049040;28;20231;-69
2021/12/18 10:29:34;;;;;;;21.07;13.17;;;;;;;3.43;68.12;101093.19;5004246;28;20597;-69
2021/12/18 10:32:09;;;;;;;20.90;13.53;;;;;;;4.13;65.85;101076.59;5032244;28;20229;-68
2021/12/18 10:34:38;;;;;;;20.47;12.47;;;;;;;4.14;64.77;101048.38;5046579;28;20227;-68
2021/12/18 10:37:25;;;;;;;22.20;14.33;;;;;;;4.24;65.21;101060.03;5041392;28;20270;-68
2021/12/18 10:39:54;;;;;;;23.73;13.87;;;;;;;4.60;64.10;101052.47;5028347;28;20732;-69
2021/12/18 10:42:24;;;;;;;24.00;15.13;;;;;;;4.82;64.03;101055.41;5028763;28;20234;-69
2021/12/18 10:45:06;;;;;;;23.80;15.13;;;;;;;4.76;64.28;101041.75;5045896;28;20227;-68
2021/12/18 10:47:54;;;;;;;21.40;14.40;;;;;;;4.19;65.46;101037.53;5036495;28;20237;-69
2021/12/18 10:50:21;;;;;;;21.57;14.00;;;;;;;4.57;64.26;101029.75;5045362;28;20239;-69
2021/12/18 10:52:57;;;;;;;22.67;13.90;;;;;;;3.96;65.71;101043.34;5048251;28;20223;-68
2021/12/18 10:55:28;;;;;;;23.60;14.73;;;;;;;4.20;64.63;101041.84;5058625;28;20229;-68
2021/12/18 10:57:55;;;;;;;22.87;15.43;;;;;;;4.03;65.89;101046.44;5065588;28;20235;-68
2021/12/18 11:03:47;;;;;;;23.63;14.90;;;;;;;1.80;72.69;101043.69;5091566;27;20744;-69
2021/12/18 11:06:19;;;;;;;23.83;13.40;;;;;;;1.44;75.53;101063.97;5063574;28;20231;-67
2021/12/18 11:08:54;;;;;;;20.43;13.03;;;;;;;1.92;73.16;101043.88;5085560;28;20320;-67
2021/12/18 11:14:09;;;;;;;21.93;14.10;;;;;;;2.22;71.64;101019.41;5102596;28;20658;-67
2021/12/18 11:16:38;;;;;;;19.33;13.23;;;;;;;2.54;70.99;101014.06;5104408;27;20230;-67
2021/12/18 11:19:12;;;;;;;22.17;13.60;;;;;;;3.15;69.36;101006.09;5104846;27;20230;-67
2021/12/18 11:22:07;;;;;;;21.83;13.40;;;;;;;2.36;70.85;101023.91;5105012;27;20217;-69
2021/12/18 11:24:45;;;;;;;18.67;12.60;;;;;;;2.41;70.23;101006.06;5091994;28;20222;-67
2021/12/18 11:27:14;;;;;;;19.00;12.93;;;;;;;1.25;72.51;100995.72;5104696;28;20529;-67
2021/12/18 11:29:51;;;;;;;19.23;12.80;;;;;;;2.20;72.19;101012.53;5106108;28;20232;-67
2021/12/18 11:32:24;;;;;;;20.20;13.00;;;;;;;2.75;69.99;100982.13;5105730;28;20232;-67
2021/12/18 11:34:54;;;;;;;20.17;12.67;;;;;;;3.11;69.52;100981.72;5086262;28;20447;-68
2021/12/18 11:37:24;;;;;;;20.23;13.00;;;;;;;3.05;68.35;100975.03;5105440;28;20252;-67
2021/12/18 11:39:57;;;;;;;17.87;12.00;;;;;;;3.52;67.74;100953.75;5104966;28;20260;-67
2021/12/18 11:42:30;;;;;;;19.10;13.30;;;;;;;1.87;71.71;100966.09;5105893;28;20236;-69
2021/12/18 11:44:59;;;;;;;17.43;12.03;;;;;;;1.66;72.98;100983.94;5104959;28;20248;-67
2021/12/18 11:47:28;;;;;;;20.13;13.17;;;;;;;2.77;71.20;100969.75;5086776;28;20229;-69
2021/12/18 11:50:05;;;;;;;19.23;12.70;;;;;;;2.93;70.83;100970.50;5105742;28;20226;-69
2021/12/18 11:52:52;;;;;;;19.57;12.97;;;;;;;2.99;70.45;100956.13;5104323;28;20237;-69
2021/12/18 11:55:21;;;;;;;18.33;12.17;;;;;;;3.70;68.52;100944.69;5105559;27;20226;-67
2021/12/18 11:57:58;;;;;;;21.53;13.27;;;;;;;3.23;69.52;100946.69;5104366;27;20242;-68
2021/12/18 12:00:45;;;;;;;22.50;14.10;;;;;;;3.75;68.52;100949.66;5104706;27;20688;-67
2021/12/18 12:03:26;;;;;;;24.67;13.63;;;;;;;3.86;67.26;100931.34;5103948;28;20225;-68
2021/12/18 12:05:56;;;;;;;23.80;13.97;;;;;;;3.28;69.44;100959.59;5104709;28;20217;-68
2021/12/18 12:08:31;;;;;;;20.93;13.10;;;;;;;3.33;68.43;100947.00;5102555;28;20225;-68
2021/12/18 12:11:21;;;;;;;21.20;13.63;;;;;;;4.00;66.83;100925.16;5074055;28;20265;-68